createdAt,value
2022-11-02T00:01:12.618Z,5.27
2022-11-02T00:03:29.713Z,5.26
2022-11-02T00:05:47.076Z,5.24
2022-11-02T00:08:05.500Z,5.25
2022-11-02T00:10:23.298Z,5.24
2022-11-02T00:12:40.275Z,5.20
2022-11-02T00:14:58.204Z,5.19
2022-11-02T00:17:15.543Z,5.18
2022-11-02T00:19:32.526Z,5.15
2022-11-02T00:21:49.815Z,5.11
2022-11-02T00:24:07.473Z,5.14
2022-11-02T00:26:24.468Z,5.17
2022-11-02T00:28:41.743Z,5.17
2022-11-02T00:30:58.859Z,5.17
2022-11-02T00:33:15.838Z,5.11
2022-11-02T00:35:33.138Z,5.11
2022-11-02T00:37:50.086Z,5.08
2022-11-02T00:40:08.021Z,5.06
2022-11-02T00:42:26.273Z,5.09
2022-11-02T00:44:43.325Z,5.07
2022-11-02T00:47:00.664Z,5.03
2022-11-02T00:49:17.960Z,5.02
2022-11-02T00:51:35.021Z,5.04
2022-11-02T00:53:52.308Z,5.02
2022-11-02T00:56:09.416Z,5.07
2022-11-02T00:58:26.347Z,5.02
2022-11-02T01:00:43.343Z,4.99
2022-11-02T01:03:00.600Z,4.97
2022-11-02T01:05:17.674Z,4.95
2022-11-02T01:07:34.643Z,4.94
2022-11-02T01:09:51.633Z,5.03
2022-11-02T01:12:08.935Z,5.02
2022-11-02T01:14:27.000Z,5.00
2022-11-02T01:19:01.174Z,5.01
2022-11-02T01:21:18.613Z,5.13
2022-11-02T01:23:35.644Z,5.11
2022-11-02T01:25:52.878Z,5.08
2022-11-02T01:28:11.161Z,5.10
2022-11-02T01:30:28.109Z,5.17
2022-11-02T01:32:45.936Z,5.20
2022-11-02T01:35:04.216Z,5.21
2022-11-02T01:37:21.508Z,5.34
2022-11-02T01:39:38.686Z,5.35
2022-11-02T01:41:55.987Z,5.35
2022-11-02T01:44:13.948Z,5.35
2022-11-02T01:46:31.164Z,5.37
2022-11-02T01:48:48.090Z,5.39
2022-11-02T01:51:06.033Z,5.41
2022-11-02T01:53:22.996Z,5.43
2022-11-02T01:55:39.926Z,5.50
2022-11-02T01:57:57.842Z,5.52
2022-11-02T02:00:15.049Z,5.58
2022-11-02T02:02:32.095Z,5.62
2022-11-02T02:04:49.152Z,5.61
2022-11-02T02:07:06.059Z,5.62
2022-11-02T02:09:24.271Z,5.63
2022-11-02T02:11:41.181Z,5.65
2022-11-02T02:13:59.095Z,5.66
2022-11-02T02:16:15.987Z,5.64
2022-11-02T02:18:32.899Z,5.63
2022-11-02T02:20:50.199Z,5.67
2022-11-02T02:23:07.055Z,5.76
2022-11-02T02:25:23.995Z,5.86
2022-11-02T02:27:40.939Z,5.91
2022-11-02T02:29:57.943Z,6.07
2022-11-02T02:32:14.988Z,6.12
2022-11-02T02:34:32.214Z,6.07
2022-11-02T02:36:49.229Z,6.16
2022-11-02T02:39:06.302Z,6.21
2022-11-02T02:41:23.198Z,6.20
2022-11-02T02:43:41.156Z,6.19
2022-11-02T02:45:58.091Z,6.24
2022-11-02T02:48:16.133Z,6.26
2022-11-02T02:50:34.046Z,6.29
2022-11-02T02:52:50.904Z,6.37
2022-11-02T02:55:07.933Z,6.38
2022-11-02T02:57:24.921Z,6.44
2022-11-02T02:59:42.205Z,6.48
2022-11-02T03:02:00.334Z,6.48
2022-11-02T03:04:17.376Z,6.47
2022-11-02T03:06:35.445Z,6.49
2022-11-02T03:08:52.651Z,6.59
2022-11-02T03:11:10.682Z,6.63
2022-11-02T03:13:27.955Z,6.61
2022-11-02T03:15:45.377Z,6.77
2022-11-02T03:18:03.772Z,6.74
2022-11-02T03:20:21.261Z,6.72
2022-11-02T03:22:38.263Z,6.76
2022-11-02T03:24:55.447Z,6.84
2022-11-02T03:27:15.564Z,6.89
2022-11-02T03:29:32.579Z,7.01
2022-11-02T03:31:49.514Z,7.10
2022-11-02T03:34:06.499Z,7.05
2022-11-02T03:36:23.677Z,7.12
2022-11-02T03:38:41.615Z,7.12
2022-11-02T03:40:58.592Z,7.16
2022-11-02T03:43:15.869Z,7.21
2022-11-02T03:45:32.749Z,7.22
2022-11-02T03:47:49.659Z,7.25
2022-11-02T03:50:06.562Z,7.25
2022-11-02T03:52:24.627Z,7.23
2022-11-02T03:54:41.892Z,7.19
2022-11-02T03:56:58.876Z,7.19
2022-11-02T03:59:16.085Z,7.18
2022-11-02T04:01:33.455Z,7.18
2022-11-02T04:03:51.837Z,7.18
2022-11-02T04:06:08.798Z,7.26
2022-11-02T04:08:25.703Z,7.24
2022-11-02T04:10:42.972Z,7.24
2022-11-02T04:13:00.232Z,7.30
2022-11-02T04:15:18.492Z,7.41
2022-11-02T04:17:35.495Z,7.41
2022-11-02T04:19:52.498Z,7.43
2022-11-02T04:22:09.495Z,7.35
2022-11-02T04:24:26.450Z,7.23
2022-11-02T04:26:44.387Z,7.27
2022-11-02T04:29:02.707Z,7.16
2022-11-02T04:31:19.668Z,7.07
2022-11-02T04:33:36.576Z,7.03
2022-11-02T04:35:54.585Z,7.00
2022-11-02T04:38:11.571Z,6.97
2022-11-02T04:40:28.785Z,7.00
2022-11-02T04:42:46.020Z,6.95
2022-11-02T04:45:03.902Z,6.92
2022-11-02T04:47:20.923Z,6.91
2022-11-02T04:49:38.872Z,6.87
2022-11-02T04:51:56.216Z,6.84
2022-11-02T04:54:13.099Z,6.84
2022-11-02T04:56:31.097Z,6.86
2022-11-02T04:58:48.097Z,6.86
2022-11-02T05:01:05.016Z,6.86
2022-11-02T05:03:21.868Z,6.85
2022-11-02T05:05:39.124Z,6.88
2022-11-02T05:07:56.111Z,6.90
2022-11-02T05:10:13.173Z,6.99
2022-11-02T05:12:30.149Z,7.10
2022-11-02T05:14:47.450Z,7.03
2022-11-02T05:17:04.453Z,7.01
2022-11-02T05:19:21.429Z,7.01
2022-11-02T05:21:38.703Z,6.99
2022-11-02T05:23:55.685Z,6.98
2022-11-02T05:26:12.593Z,6.96
2022-11-02T05:28:29.663Z,7.01
2022-11-02T05:30:47.837Z,7.09
2022-11-02T05:33:05.185Z,7.18
2022-11-02T05:35:22.549Z,7.22
2022-11-02T05:37:39.833Z,7.23
2022-11-02T05:39:57.111Z,7.28
2022-11-02T05:42:15.285Z,7.27
2022-11-02T05:44:32.309Z,7.24
2022-11-02T05:46:50.278Z,7.22
2022-11-02T05:49:07.531Z,7.27
2022-11-02T05:51:24.515Z,7.27
2022-11-02T05:53:41.335Z,7.22
2022-11-02T05:55:58.362Z,7.23
2022-11-02T05:58:15.605Z,7.19
2022-11-02T06:00:33.632Z,7.17
2022-11-02T06:02:50.598Z,7.12
2022-11-02T06:05:08.631Z,7.10
2022-11-02T06:07:26.886Z,7.12
2022-11-02T06:09:43.875Z,7.11
2022-11-02T06:12:00.879Z,7.17
2022-11-02T06:14:17.873Z,7.15
2022-11-02T06:16:34.784Z,7.18
2022-11-02T06:18:51.819Z,7.18
2022-11-02T06:21:09.011Z,7.19
2022-11-02T06:23:26.237Z,7.18
2022-11-02T06:25:43.527Z,7.16
2022-11-02T06:28:00.516Z,7.13
2022-11-02T06:30:17.805Z,7.13
2022-11-02T06:32:34.697Z,7.09
2022-11-02T06:34:51.677Z,7.04
2022-11-02T06:37:08.866Z,7.01
2022-11-02T06:39:25.804Z,6.99
2022-11-02T06:41:43.075Z,6.95
2022-11-02T06:44:00.060Z,6.91
2022-11-02T06:46:17.375Z,6.89
2022-11-02T06:48:35.706Z,6.86
2022-11-02T06:50:52.863Z,6.84
2022-11-02T06:53:09.858Z,6.83
2022-11-02T06:55:26.781Z,6.86
2022-11-02T06:57:43.833Z,6.82
2022-11-02T07:00:00.816Z,6.86
2022-11-02T07:02:17.801Z,6.88
2022-11-02T07:04:34.774Z,6.96
2022-11-02T07:06:52.895Z,7.03
2022-11-02T07:09:10.116Z,7.07
2022-11-02T07:11:27.299Z,7.13
2022-11-02T07:13:45.492Z,7.18
2022-11-02T07:16:02.522Z,7.22
2022-11-02T07:18:19.688Z,7.24
2022-11-02T07:20:37.962Z,7.22
2022-11-02T07:22:55.159Z,7.24
2022-11-02T07:25:14.557Z,7.29
2022-11-02T07:27:31.592Z,7.35
2022-11-02T07:29:48.583Z,7.40
2022-11-02T07:32:05.590Z,7.51
2022-11-02T07:34:22.614Z,7.54
2022-11-02T07:36:39.552Z,7.63
2022-11-02T07:38:56.483Z,7.65
2022-11-02T07:41:13.459Z,7.70
2022-11-02T07:43:30.713Z,7.71
2022-11-02T07:45:47.819Z,7.74
2022-11-02T07:48:04.800Z,7.77
2022-11-02T07:50:22.012Z,7.83
2022-11-02T07:52:39.058Z,7.95
2022-11-02T07:54:55.989Z,8.08
2022-11-02T07:57:13.272Z,8.22
2022-11-02T07:59:30.212Z,8.41
2022-11-02T08:01:47.207Z,8.51
2022-11-02T08:04:04.510Z,8.60
2022-11-02T08:06:21.416Z,8.69
2022-11-02T08:08:38.388Z,8.78
2022-11-02T08:10:55.388Z,8.83
2022-11-02T08:13:12.350Z,8.89
2022-11-02T08:15:29.624Z,8.94
2022-11-02T08:17:46.828Z,8.99
2022-11-02T08:20:03.954Z,9.08
2022-11-02T08:22:21.375Z,9.14
2022-11-02T08:24:39.232Z,9.17
2022-11-02T08:26:56.545Z,9.25
2022-11-02T08:29:13.512Z,9.38
2022-11-02T08:31:30.557Z,9.50
2022-11-02T08:33:47.865Z,9.69
2022-11-02T08:36:04.914Z,10.01
2022-11-02T08:38:21.828Z,10.06
2022-11-02T08:40:38.793Z,10.23
2022-11-02T08:42:56.050Z,10.40
2022-11-02T08:45:12.953Z,10.63
2022-11-02T08:47:29.967Z,10.82
2022-11-02T08:49:47.246Z,10.97
2022-11-02T08:52:04.366Z,11.12
2022-11-02T08:54:21.478Z,11.32
2022-11-02T08:56:38.712Z,11.54
2022-11-02T08:58:57.080Z,11.76
2022-11-02T09:01:14.415Z,11.94
2022-11-02T09:03:32.362Z,12.09
2022-11-02T09:05:49.406Z,12.11
2022-11-02T09:08:07.597Z,12.10
2022-11-02T09:10:26.009Z,12.26
2022-11-02T09:12:44.034Z,12.49
2022-11-02T09:15:01.276Z,12.62
2022-11-02T09:17:19.557Z,12.79
2022-11-02T09:19:36.595Z,12.92
2022-11-02T09:21:54.553Z,12.87
2022-11-02T09:24:12.589Z,12.91
2022-11-02T09:26:30.803Z,12.97
2022-11-02T09:28:47.822Z,12.84
2022-11-02T09:31:07.436Z,12.89
2022-11-02T09:33:27.889Z,12.82
2022-11-02T09:35:44.885Z,12.78
2022-11-02T09:38:02.807Z,12.61
2022-11-02T09:40:19.767Z,12.53
2022-11-02T09:42:36.893Z,12.54
2022-11-02T09:44:53.945Z,12.78
2022-11-02T09:47:55.626Z,12.81
2022-11-02T09:49:49.201Z,12.90
2022-11-02T09:52:06.433Z,12.94
2022-11-02T09:54:23.514Z,13.05
2022-11-02T09:56:40.446Z,12.92
2022-11-02T09:58:57.740Z,12.88
2022-11-02T10:01:14.740Z,12.98
2022-11-02T10:03:31.810Z,13.13
2022-11-02T10:05:48.777Z,13.09
2022-11-02T10:08:24.611Z,13.27
2022-11-02T10:11:07.761Z,13.47
2022-11-02T10:13:25.064Z,13.66
2022-11-02T10:15:43.052Z,13.83
2022-11-02T10:18:00.031Z,13.88
2022-11-02T10:20:18.029Z,13.99
2022-11-02T10:22:35.246Z,14.22
2022-11-02T10:24:52.505Z,14.45
2022-11-02T10:27:13.931Z,14.83
2022-11-02T10:29:31.288Z,14.91
2022-11-02T10:31:48.615Z,14.89
2022-11-02T10:34:07.037Z,14.81
2022-11-02T10:36:24.006Z,14.80
2022-11-02T10:38:41.202Z,14.56
2022-11-02T10:40:58.238Z,14.55
2022-11-02T10:43:16.237Z,14.49
2022-11-02T10:45:33.175Z,14.35
2022-11-02T10:47:51.500Z,14.38
2022-11-02T10:50:12.300Z,14.09
2022-11-02T10:52:29.619Z,14.07
2022-11-02T10:54:46.807Z,14.18
2022-11-02T10:57:04.108Z,14.37
2022-11-02T10:59:21.394Z,14.66
2022-11-02T11:01:38.549Z,14.70
2022-11-02T11:03:55.554Z,14.91
2022-11-02T11:06:12.779Z,14.98
2022-11-02T11:08:29.936Z,14.77
2022-11-02T11:10:47.962Z,14.59
2022-11-02T11:13:05.017Z,14.39
2022-11-02T11:20:37.258Z,14.01
2022-11-02T11:22:55.532Z,14.22
2022-11-02T11:25:12.586Z,14.27
2022-11-02T11:27:29.519Z,14.26
2022-11-02T11:29:48.062Z,14.24
2022-11-02T11:32:06.860Z,14.25
2022-11-02T11:34:24.158Z,14.14
2022-11-02T11:36:41.408Z,13.99
2022-11-02T11:38:58.706Z,13.87
2022-11-02T11:41:16.055Z,13.84
2022-11-02T11:43:33.123Z,13.79
2022-11-02T11:45:50.231Z,13.79
2022-11-02T11:48:07.532Z,13.73
2022-11-02T11:50:25.838Z,13.71
2022-11-02T11:52:45.232Z,13.69
2022-11-02T11:55:02.582Z,13.79
2022-11-02T11:57:20.081Z,13.83
2022-11-02T11:59:38.519Z,13.75
2022-11-02T12:01:55.827Z,13.69
2022-11-02T12:04:12.906Z,13.73
2022-11-02T12:06:29.993Z,13.71
2022-11-02T12:08:46.961Z,13.74
2022-11-02T12:11:04.199Z,13.88
2022-11-02T12:13:22.578Z,14.04
2022-11-02T12:15:39.593Z,14.20
2022-11-02T12:17:57.641Z,14.26
2022-11-02T12:20:16.057Z,14.35
2022-11-02T12:22:33.079Z,14.42
2022-11-02T12:24:50.383Z,14.58
2022-11-02T12:27:07.357Z,14.65
2022-11-02T12:29:24.451Z,14.57
2022-11-02T12:31:42.522Z,14.67
2022-11-02T12:33:59.593Z,14.50
2022-11-02T12:36:16.611Z,14.47
2022-11-02T12:38:33.832Z,14.51
2022-11-02T12:40:51.692Z,14.73
2022-11-02T12:43:09.636Z,14.83
2022-11-02T12:45:26.653Z,14.89
2022-11-02T12:47:44.671Z,15.03
2022-11-02T12:50:02.024Z,15.11
2022-11-02T12:52:19.064Z,15.18
2022-11-02T12:54:40.631Z,15.19
2022-11-02T12:57:00.098Z,15.28
2022-11-02T12:59:17.357Z,15.32
2022-11-02T13:01:34.840Z,15.24
2022-11-02T13:03:52.032Z,14.98
2022-11-02T13:06:08.960Z,14.97
2022-11-02T13:08:26.034Z,14.84
2022-11-02T13:10:43.339Z,14.59
2022-11-02T13:13:00.575Z,14.69
2022-11-02T13:15:17.506Z,14.65
2022-11-02T13:17:34.557Z,14.61
2022-11-02T13:19:52.902Z,14.57
2022-11-02T13:22:11.879Z,14.65
2022-11-02T13:24:31.865Z,14.66
2022-11-02T13:26:53.258Z,14.79
2022-11-02T13:29:15.108Z,14.81
2022-11-02T13:31:32.195Z,15.00
2022-11-02T13:33:49.287Z,15.03
2022-11-02T13:36:07.374Z,15.07
2022-11-02T13:38:24.288Z,14.96
2022-11-02T13:40:42.379Z,14.87
2022-11-02T13:42:59.467Z,14.80
2022-11-02T13:45:16.553Z,14.77
2022-11-02T13:47:35.141Z,14.95
2022-11-02T13:49:52.175Z,14.87
2022-11-02T13:52:12.222Z,14.84
2022-11-02T13:54:34.428Z,14.65
2022-11-02T13:56:51.378Z,14.59
2022-11-02T13:59:08.667Z,14.57
2022-11-02T14:01:25.695Z,14.55
2022-11-02T14:03:44.607Z,14.52
2022-11-02T14:06:01.836Z,14.43
2022-11-02T14:08:19.124Z,14.42
2022-11-02T14:10:38.999Z,14.33
2022-11-02T14:12:56.061Z,14.39
2022-11-02T14:15:13.078Z,14.32
2022-11-02T14:17:30.118Z,14.32
2022-11-02T14:19:47.136Z,14.30
2022-11-02T14:22:04.371Z,14.28
2022-11-02T14:24:22.618Z,14.27
2022-11-02T14:26:39.546Z,14.31
2022-11-02T14:28:56.494Z,14.14
2022-11-02T14:31:13.374Z,14.08
2022-11-02T14:33:30.378Z,14.07
2022-11-02T14:35:47.290Z,14.07
2022-11-02T14:38:05.811Z,14.00
2022-11-02T14:40:23.089Z,14.00
2022-11-02T14:42:39.974Z,14.00
2022-11-02T14:44:57.274Z,13.90
2022-11-02T14:47:14.335Z,13.92
2022-11-02T14:49:31.267Z,13.85
2022-11-02T14:51:48.216Z,13.75
2022-11-02T14:54:06.457Z,13.75
2022-11-02T14:56:23.690Z,13.69
2022-11-02T14:58:40.723Z,13.65
2022-11-02T15:00:57.994Z,13.65
2022-11-02T15:03:15.076Z,13.60
2022-11-02T15:05:32.393Z,13.61
2022-11-02T15:07:52.462Z,13.51
2022-11-02T15:10:09.548Z,13.50
2022-11-02T15:12:26.623Z,13.34
2022-11-02T15:14:43.893Z,13.20
2022-11-02T15:17:02.011Z,13.08
2022-11-02T15:19:19.025Z,12.95
2022-11-02T15:21:36.928Z,12.86
2022-11-02T15:23:56.138Z,12.72
2022-11-02T15:26:13.141Z,12.63
2022-11-02T15:28:30.493Z,12.51
2022-11-02T15:30:47.371Z,12.39
2022-11-02T15:33:05.712Z,12.28
2022-11-02T15:35:23.176Z,12.24
2022-11-02T15:37:56.474Z,12.15
2022-11-02T15:40:17.619Z,12.03
2022-11-02T15:42:34.892Z,11.91
2022-11-02T15:44:52.038Z,11.78
2022-11-02T15:47:09.136Z,11.72
2022-11-02T15:49:26.384Z,11.60
2022-11-02T15:51:43.633Z,11.49
2022-11-02T15:54:00.716Z,11.40
2022-11-02T15:56:17.962Z,11.29
2022-11-02T15:58:35.047Z,11.16
2022-11-02T16:00:52.597Z,11.05
2022-11-02T16:03:10.628Z,10.88
2022-11-02T16:05:28.406Z,10.87
2022-11-02T16:08:05.306Z,10.78
2022-11-02T16:10:22.568Z,10.65
2022-11-02T16:12:39.919Z,10.57
2022-11-02T16:14:56.902Z,10.48
2022-11-02T16:17:13.848Z,10.40
2022-11-02T16:19:30.787Z,10.28
2022-11-02T16:21:48.071Z,10.17
2022-11-02T16:24:06.153Z,10.12
2022-11-02T16:26:23.136Z,10.05
2022-11-02T16:28:40.062Z,10.00
2022-11-02T16:30:57.393Z,9.93
2022-11-02T16:33:14.713Z,9.86
2022-11-02T16:35:31.650Z,9.79
2022-11-02T16:37:48.672Z,9.74
2022-11-02T16:40:05.941Z,9.66
2022-11-02T16:42:23.703Z,9.59
2022-11-02T16:44:40.768Z,9.52
2022-11-02T16:46:58.011Z,9.46
2022-11-02T16:49:15.250Z,9.39
2022-11-02T16:51:32.354Z,9.35
2022-11-02T16:53:50.297Z,9.29
2022-11-02T16:56:07.655Z,9.23
2022-11-02T16:58:24.599Z,9.20
2022-11-02T17:00:42.065Z,9.12
2022-11-02T17:02:59.980Z,9.03
2022-11-02T17:05:17.221Z,9.02
2022-11-02T17:07:34.135Z,8.95
2022-11-02T17:09:51.396Z,8.89
2022-11-02T17:12:08.432Z,8.81
2022-11-02T17:14:26.629Z,8.76
2022-11-02T17:16:43.564Z,8.73
2022-11-02T17:19:01.476Z,8.68
2022-11-02T17:21:18.751Z,8.63
2022-11-02T17:23:36.633Z,8.63
2022-11-02T17:25:53.958Z,8.54
2022-11-02T17:28:11.267Z,8.46
2022-11-02T17:30:28.153Z,8.40
2022-11-02T17:32:45.089Z,8.35
2022-11-02T17:35:02.381Z,8.31
2022-11-02T17:37:19.342Z,8.27
2022-11-02T17:39:36.566Z,8.22
2022-11-02T17:41:54.529Z,8.20
2022-11-02T17:44:11.770Z,8.15
2022-11-02T17:46:28.770Z,8.08
2022-11-02T17:48:46.122Z,8.06
2022-11-02T17:51:03.150Z,8.01
2022-11-02T17:53:20.447Z,7.93
2022-11-02T17:55:37.340Z,7.88
2022-11-02T17:57:55.373Z,7.90
2022-11-02T18:00:12.658Z,7.81
2022-11-02T18:02:30.733Z,7.72
2022-11-02T18:04:48.135Z,7.66
2022-11-02T18:07:05.184Z,7.62
2022-11-02T18:09:22.076Z,7.56
2022-11-02T18:11:39.249Z,7.51
2022-11-02T18:13:56.309Z,7.48
2022-11-02T18:16:13.650Z,7.44
2022-11-02T18:18:30.963Z,7.41
2022-11-02T18:20:47.929Z,7.40
2022-11-02T18:23:05.434Z,7.36
2022-11-02T18:25:22.876Z,7.34
2022-11-02T18:27:40.167Z,7.30
2022-11-02T18:29:57.488Z,7.21
2022-11-02T18:32:14.383Z,7.14
2022-11-02T18:34:31.703Z,7.11
2022-11-02T18:36:48.900Z,7.10
2022-11-02T18:39:06.115Z,7.08
2022-11-02T18:41:23.086Z,7.03
2022-11-02T18:43:40.049Z,6.99
2022-11-02T18:45:57.019Z,6.94
2022-11-02T18:48:14.132Z,6.97
2022-11-02T18:50:31.045Z,6.95
2022-11-02T18:52:48.337Z,6.90
2022-11-02T18:55:06.270Z,6.86
2022-11-02T18:57:27.935Z,6.81
2022-11-02T18:59:45.501Z,6.80
2022-11-02T19:02:02.818Z,6.75
2022-11-02T19:04:19.858Z,6.77
2022-11-02T19:06:36.820Z,6.77
2022-11-02T19:08:53.913Z,6.74
2022-11-02T19:11:12.548Z,6.76
2022-11-02T19:13:30.790Z,6.74
2022-11-02T19:15:48.073Z,6.66
2022-11-02T19:18:09.420Z,6.60
2022-11-02T19:20:26.710Z,6.55
2022-11-02T19:22:44.797Z,6.54
2022-11-02T19:25:02.259Z,6.53
2022-11-02T19:27:21.336Z,6.48
2022-11-02T19:29:38.627Z,6.47
2022-11-02T19:31:55.788Z,6.44
2022-11-02T19:34:13.105Z,6.41
2022-11-02T19:36:33.369Z,6.38
2022-11-02T19:38:53.744Z,6.38
2022-11-02T19:41:13.608Z,6.36
2022-11-02T19:43:30.752Z,6.37
2022-11-02T19:45:47.930Z,6.33
2022-11-02T19:48:05.259Z,6.24
2022-11-02T19:50:23.796Z,6.22
2022-11-02T19:52:40.807Z,6.23
2022-11-02T19:54:58.393Z,6.19
2022-11-02T19:57:18.692Z,6.13
2022-11-02T19:59:38.571Z,6.09
2022-11-02T20:01:55.896Z,6.06
2022-11-02T20:04:13.674Z,6.03
2022-11-02T20:06:30.752Z,6.00
2022-11-02T20:08:50.735Z,5.99
2022-11-02T20:11:07.715Z,5.98
2022-11-02T20:13:24.989Z,6.04
2022-11-02T20:15:42.259Z,6.04
2022-11-02T20:18:18.407Z,6.02
2022-11-02T20:20:36.664Z,6.00
2022-11-02T20:22:53.724Z,6.05
2022-11-02T20:25:10.996Z,5.96
2022-11-02T20:27:28.026Z,5.90
2022-11-02T20:29:45.193Z,5.86
2022-11-02T20:32:02.246Z,5.86
2022-11-02T20:34:19.496Z,5.89
2022-11-02T20:36:36.743Z,5.90
2022-11-02T20:38:53.709Z,5.90
2022-11-02T20:41:11.770Z,5.89
2022-11-02T20:43:28.752Z,5.81
2022-11-02T20:45:46.761Z,5.80
2022-11-02T20:48:04.218Z,5.77
2022-11-02T20:50:25.789Z,5.73
2022-11-02T20:52:43.336Z,5.73
2022-11-02T20:55:00.337Z,5.67
2022-11-02T20:57:17.275Z,5.66
2022-11-02T20:59:34.179Z,5.66
2022-11-02T21:01:51.518Z,5.66
2022-11-02T21:04:08.513Z,5.66
2022-11-02T21:06:25.594Z,5.66
2022-11-02T21:08:42.853Z,5.64
2022-11-02T21:11:00.080Z,5.63
2022-11-02T21:13:17.399Z,5.64
2022-11-02T21:15:35.316Z,5.62
2022-11-02T21:17:52.310Z,5.64
2022-11-02T21:22:46.541Z,5.71
2022-11-02T21:25:03.868Z,5.65
2022-11-02T21:27:21.768Z,5.61
2022-11-02T21:29:39.335Z,5.51
2022-11-02T21:31:57.789Z,5.47
2022-11-02T21:34:15.188Z,5.48
2022-11-02T21:36:35.028Z,5.50
2022-11-02T21:38:52.139Z,5.48
2022-11-02T21:41:09.539Z,5.45
2022-11-02T21:43:26.680Z,5.39
2022-11-02T21:45:43.673Z,5.37
2022-11-02T21:48:01.322Z,5.31
2022-11-02T21:50:19.722Z,5.29
2022-11-02T21:52:37.858Z,5.29
2022-11-02T21:54:57.142Z,5.28
2022-11-02T21:57:14.440Z,5.27
2022-11-02T21:59:31.568Z,5.28
2022-11-02T22:01:49.249Z,5.33
2022-11-02T22:04:06.647Z,5.38
2022-11-02T22:06:28.469Z,5.35
2022-11-02T22:08:48.872Z,5.31
2022-11-02T22:11:05.993Z,5.31
2022-11-02T22:13:23.357Z,5.34
2022-11-02T22:15:40.693Z,5.36
2022-11-02T22:17:58.983Z,5.37
2022-11-02T22:20:16.966Z,5.34
2022-11-02T22:22:33.957Z,5.33
2022-11-02T22:24:52.075Z,5.34
2022-11-02T22:27:09.454Z,5.34
2022-11-02T22:29:26.498Z,5.33
2022-11-02T22:31:43.438Z,5.44
2022-11-02T22:34:00.519Z,5.39
2022-11-02T22:36:20.266Z,5.39
2022-11-02T22:38:37.283Z,5.37
2022-11-02T22:40:54.584Z,5.32
2022-11-02T22:43:11.871Z,5.30
2022-11-02T22:45:29.279Z,5.32
2022-11-02T22:47:53.489Z,5.29
2022-11-02T22:50:10.655Z,5.28
2022-11-02T22:52:27.720Z,5.27
2022-11-02T22:54:44.697Z,5.29
2022-11-02T22:57:01.891Z,5.33
2022-11-02T22:59:20.170Z,5.31
2022-11-02T23:01:37.598Z,5.27
2022-11-02T23:03:55.797Z,5.24
2022-11-02T23:06:12.683Z,5.22
2022-11-02T23:08:30.746Z,5.19
2022-11-02T23:10:50.536Z,5.16
2022-11-02T23:13:10.975Z,5.11
2022-11-02T23:15:28.302Z,5.15
2022-11-02T23:17:45.657Z,5.20
2022-11-02T23:20:03.139Z,5.23
2022-11-02T23:22:20.469Z,5.24
2022-11-02T23:24:37.463Z,5.26
2022-11-02T23:26:54.748Z,5.21
2022-11-02T23:29:12.740Z,5.20
2022-11-02T23:31:29.793Z,5.21
2022-11-02T23:33:46.714Z,5.25
2022-11-02T23:36:04.218Z,5.28
2022-11-02T23:38:21.499Z,5.25
2022-11-02T23:40:38.682Z,5.17
2022-11-02T23:42:55.810Z,5.14
2022-11-02T23:45:12.787Z,5.03
2022-11-02T23:47:30.761Z,4.98
2022-11-02T23:49:48.109Z,4.95
2022-11-02T23:52:05.143Z,4.99
2022-11-02T23:54:22.275Z,4.98
2022-11-02T23:56:39.602Z,4.92
2022-11-02T23:58:56.619Z,4.90
